createdAt,value
2022-12-27T00:02:06.116Z,8.55
2022-12-27T00:04:39.432Z,8.53
2022-12-27T00:07:11.853Z,8.51
2022-12-27T00:09:44.325Z,8.50
2022-12-27T00:12:16.732Z,8.49
2022-12-27T00:14:49.131Z,8.51
2022-12-27T00:17:21.453Z,8.51
2022-12-27T00:19:53.892Z,8.51
2022-12-27T00:22:26.341Z,8.50
2022-12-27T00:24:58.791Z,8.49
2022-12-27T00:27:31.472Z,8.49
2022-12-27T00:30:04.152Z,8.48
2022-12-27T00:32:36.453Z,8.46
2022-12-27T00:35:10.322Z,8.42
2022-12-27T00:37:42.655Z,8.39
2022-12-27T00:40:16.027Z,8.39
2022-12-27T00:42:48.373Z,8.40
2022-12-27T00:45:20.940Z,8.37
2022-12-27T00:47:53.351Z,8.32
2022-12-27T00:50:25.727Z,8.25
2022-12-27T00:52:58.123Z,8.23
2022-12-27T00:55:30.495Z,8.21
2022-12-27T00:58:03.180Z,8.17
2022-12-27T01:00:35.649Z,8.10
2022-12-27T01:03:08.025Z,8.04
2022-12-27T01:05:40.830Z,7.95
2022-12-27T01:08:13.896Z,7.87
2022-12-27T01:10:46.295Z,7.78
2022-12-27T01:13:18.643Z,7.70
2022-12-27T01:15:50.937Z,7.64
2022-12-27T01:18:23.210Z,7.57
2022-12-27T01:20:55.561Z,7.52
2022-12-27T01:23:27.880Z,7.49
2022-12-27T01:26:04.705Z,7.46
2022-12-27T01:28:37.443Z,7.47
2022-12-27T01:31:11.488Z,7.47
2022-12-27T01:33:44.316Z,7.43
2022-12-27T01:36:19.528Z,7.42
2022-12-27T01:38:52.405Z,7.42
2022-12-27T01:41:44.839Z,7.46
2022-12-27T01:44:50.761Z,7.45
2022-12-27T01:47:33.730Z,7.45
2022-12-27T01:50:19.411Z,7.46
2022-12-27T01:52:58.091Z,7.47
2022-12-27T01:55:37.600Z,7.47
2022-12-27T01:58:15.609Z,7.46
2022-12-27T02:00:49.293Z,7.45
2022-12-27T02:03:26.287Z,7.44
2022-12-27T02:06:01.023Z,7.44
2022-12-27T02:08:43.252Z,7.42
2022-12-27T02:11:16.988Z,7.37
2022-12-27T02:13:49.432Z,7.35
2022-12-27T02:16:22.501Z,7.33
2022-12-27T02:18:54.894Z,7.33
2022-12-27T02:22:07.922Z,7.32
2022-12-27T02:25:04.731Z,7.27
2022-12-27T02:27:55.166Z,7.20
2022-12-27T02:30:28.987Z,7.14
2022-12-27T02:33:08.867Z,7.13
2022-12-27T02:35:44.316Z,7.10
2022-12-27T02:38:20.502Z,7.08
2022-12-27T02:41:13.285Z,7.08
2022-12-27T02:44:03.265Z,7.05
2022-12-27T02:47:05.154Z,7.05
2022-12-27T02:50:01.424Z,7.05
2022-12-27T02:53:05.238Z,7.04
2022-12-27T02:56:05.603Z,6.98
2022-12-27T02:58:46.894Z,6.94
2022-12-27T03:01:44.829Z,6.91
2022-12-27T03:04:31.339Z,6.87
2022-12-27T03:07:23.780Z,6.82
2022-12-27T03:10:33.120Z,6.77
2022-12-27T03:13:35.072Z,6.70
2022-12-27T03:16:20.290Z,6.66
2022-12-27T03:19:09.739Z,6.60
2022-12-27T03:22:00.360Z,6.56
2022-12-27T03:24:52.375Z,6.53
2022-12-27T03:27:29.708Z,6.49
2022-12-27T03:30:23.100Z,6.42
2022-12-27T03:33:14.243Z,6.32
2022-12-27T03:36:05.866Z,6.24
2022-12-27T03:38:47.296Z,6.19
2022-12-27T03:41:43.612Z,6.16
2022-12-27T03:44:25.707Z,6.16
2022-12-27T03:47:00.970Z,6.13
2022-12-27T03:49:40.423Z,6.10
2022-12-27T03:52:17.346Z,6.07
2022-12-27T03:54:52.259Z,6.03
2022-12-27T03:57:27.776Z,6.00
2022-12-27T04:00:00.223Z,6.01
2022-12-27T04:02:33.233Z,6.02
2022-12-27T04:05:06.093Z,5.98
2022-12-27T04:07:38.667Z,5.98
2022-12-27T04:10:30.961Z,5.99
2022-12-27T04:13:21.483Z,6.00
2022-12-27T04:16:11.576Z,5.99
2022-12-27T04:19:01.585Z,6.02
2022-12-27T04:21:51.547Z,6.02
2022-12-27T04:24:41.565Z,5.99
2022-12-27T04:27:31.927Z,5.97
2022-12-27T04:30:22.063Z,5.93
2022-12-27T04:33:12.591Z,5.94
2022-12-27T04:35:44.991Z,5.95
2022-12-27T04:38:17.286Z,5.93
2022-12-27T04:41:07.229Z,5.92
2022-12-27T04:43:57.565Z,5.90
2022-12-27T04:46:47.820Z,5.89
2022-12-27T04:49:42.709Z,5.86
2022-12-27T04:52:35.228Z,5.86
2022-12-27T04:55:17.391Z,5.88
2022-12-27T04:57:50.064Z,5.84
2022-12-27T05:00:42.455Z,5.81
2022-12-27T05:03:17.672Z,5.78
2022-12-27T05:05:52.195Z,5.79
2022-12-27T05:08:42.513Z,5.79
2022-12-27T05:11:32.726Z,5.74
2022-12-27T05:14:07.559Z,5.69
2022-12-27T05:16:41.826Z,5.68
2022-12-27T05:19:16.021Z,5.65
2022-12-27T05:22:02.196Z,5.60
2022-12-27T05:24:53.451Z,5.56
2022-12-27T05:27:25.802Z,5.51
2022-12-27T05:29:58.198Z,5.48
2022-12-27T05:32:30.596Z,5.45
2022-12-27T05:35:02.996Z,5.43
2022-12-27T05:37:35.357Z,5.42
2022-12-27T05:40:10.121Z,5.41
2022-12-27T05:42:42.498Z,5.38
2022-12-27T05:45:15.458Z,5.37
2022-12-27T05:47:47.957Z,5.34
2022-12-27T05:50:20.624Z,5.35
2022-12-27T05:52:54.780Z,5.33
2022-12-27T05:55:27.099Z,5.32
2022-12-27T05:57:59.497Z,5.30
2022-12-27T06:00:31.923Z,5.28
2022-12-27T06:03:05.159Z,5.27
2022-12-27T06:05:37.588Z,5.28
2022-12-27T06:08:10.372Z,5.28
2022-12-27T06:10:43.106Z,5.28
2022-12-27T06:13:15.420Z,5.28
2022-12-27T06:15:47.828Z,5.27
2022-12-27T06:18:20.147Z,5.27
2022-12-27T06:20:52.550Z,5.26
2022-12-27T06:23:24.901Z,5.24
2022-12-27T06:25:57.444Z,5.22
2022-12-27T06:28:29.792Z,5.21
2022-12-27T06:31:02.664Z,5.18
2022-12-27T06:33:35.431Z,5.14
2022-12-27T06:36:11.068Z,5.13
2022-12-27T06:38:43.842Z,5.12
2022-12-27T06:41:19.020Z,5.10
2022-12-27T06:43:49.841Z,5.08
2022-12-27T06:46:24.495Z,5.06
2022-12-27T06:48:57.080Z,5.06
2022-12-27T06:51:29.521Z,5.06
2022-12-27T06:54:01.922Z,5.05
2022-12-27T06:56:34.381Z,5.04
2022-12-27T06:59:06.821Z,5.04
2022-12-27T07:01:39.580Z,5.05
2022-12-27T07:04:12.182Z,5.06
2022-12-27T07:06:44.580Z,5.07
2022-12-27T07:09:16.901Z,5.11
2022-12-27T07:11:49.351Z,5.15
2022-12-27T07:14:21.673Z,5.14
2022-12-27T07:16:54.068Z,5.15
2022-12-27T07:19:26.393Z,5.15
2022-12-27T07:21:58.822Z,5.16
2022-12-27T07:24:33.420Z,5.18
2022-12-27T07:27:05.868Z,5.20
2022-12-27T07:29:45.068Z,5.19
2022-12-27T07:32:18.113Z,5.17
2022-12-27T07:34:50.563Z,5.16
2022-12-27T07:37:22.940Z,5.14
2022-12-27T07:39:55.340Z,5.13
2022-12-27T07:42:27.710Z,5.13
2022-12-27T07:45:00.414Z,5.11
2022-12-27T07:47:32.812Z,5.12
2022-12-27T07:50:07.639Z,5.13
2022-12-27T07:52:40.057Z,5.11
2022-12-27T07:55:12.813Z,5.11
2022-12-27T07:57:45.122Z,5.13
2022-12-27T08:00:20.841Z,5.13
2022-12-27T08:02:53.287Z,5.14
2022-12-27T08:05:28.027Z,5.17
2022-12-27T08:08:02.677Z,5.19
2022-12-27T08:10:36.749Z,5.20
2022-12-27T08:13:09.271Z,5.20
2022-12-27T08:15:43.867Z,5.20
2022-12-27T08:18:16.220Z,5.19
2022-12-27T08:20:48.587Z,5.18
2022-12-27T08:23:21.176Z,5.16
2022-12-27T08:25:53.512Z,5.15
2022-12-27T08:28:28.293Z,5.14
2022-12-27T08:31:01.954Z,5.14
2022-12-27T08:33:34.445Z,5.14
2022-12-27T08:36:36.737Z,5.11
2022-12-27T08:39:01.233Z,5.08
2022-12-27T08:41:33.916Z,5.06
2022-12-27T08:44:06.438Z,5.05
2022-12-27T08:46:39.064Z,5.05
2022-12-27T08:49:11.721Z,5.08
2022-12-27T08:51:44.204Z,5.10
2022-12-27T08:54:16.576Z,5.12
2022-12-27T08:56:49.063Z,5.15
2022-12-27T08:59:21.419Z,5.17
2022-12-27T09:01:53.984Z,5.16
2022-12-27T09:04:26.425Z,5.16
2022-12-27T09:06:58.822Z,5.16
2022-12-27T09:09:31.119Z,5.16
2022-12-27T09:12:08.679Z,5.17
2022-12-27T09:14:41.780Z,5.19
2022-12-27T09:17:14.153Z,5.25
2022-12-27T09:19:46.454Z,5.27
2022-12-27T09:22:18.821Z,5.29
2022-12-27T09:24:51.191Z,5.34
2022-12-27T09:27:23.598Z,5.38
2022-12-27T09:29:56.221Z,5.39
2022-12-27T09:32:28.618Z,5.39
2022-12-27T09:35:01.085Z,5.43
2022-12-27T09:37:33.955Z,5.45
2022-12-27T09:40:07.690Z,5.46
2022-12-27T09:42:59.630Z,5.48
2022-12-27T09:45:43.202Z,5.49
2022-12-27T09:48:27.675Z,5.47
2022-12-27T09:51:13.168Z,5.46
2022-12-27T09:53:52.373Z,5.45
2022-12-27T09:56:40.890Z,5.48
2022-12-27T09:59:28.663Z,5.50
2022-12-27T10:02:01.862Z,5.50
2022-12-27T10:05:09.999Z,5.49
2022-12-27T10:07:37.445Z,5.48
2022-12-27T10:10:18.605Z,5.49
2022-12-27T10:13:07.998Z,5.52
2022-12-27T10:15:48.560Z,5.55
2022-12-27T10:18:38.701Z,5.55
2022-12-27T10:21:21.134Z,5.55
2022-12-27T10:23:57.912Z,5.52
2022-12-27T10:26:30.371Z,5.51
2022-12-27T10:29:12.161Z,5.52
2022-12-27T10:31:45.422Z,5.52
2022-12-27T10:34:24.320Z,5.52
2022-12-27T10:36:56.953Z,5.47
2022-12-27T10:39:32.336Z,5.45
2022-12-27T10:42:11.097Z,5.43
2022-12-27T10:44:44.542Z,5.38
2022-12-27T10:47:17.506Z,5.35
2022-12-27T10:50:11.262Z,5.34
2022-12-27T10:52:45.061Z,5.33
2022-12-27T10:55:35.516Z,5.32
2022-12-27T10:58:41.098Z,5.32
2022-12-27T11:01:23.333Z,5.28
2022-12-27T11:04:17.908Z,5.27
2022-12-27T11:07:12.760Z,5.27
2022-12-27T11:09:51.157Z,5.28
2022-12-27T11:12:25.855Z,5.29
2022-12-27T11:15:01.147Z,5.29
2022-12-27T11:17:39.100Z,5.29
2022-12-27T11:20:23.695Z,5.29
2022-12-27T11:22:59.841Z,5.27
2022-12-27T11:25:33.296Z,5.26
2022-12-27T11:28:10.193Z,5.23
2022-12-27T11:30:50.707Z,5.21
2022-12-27T11:33:30.818Z,5.20
2022-12-27T11:36:03.517Z,5.18
2022-12-27T11:38:38.140Z,5.16
2022-12-27T11:41:14.823Z,5.15
2022-12-27T11:43:53.360Z,5.12
2022-12-27T11:46:32.137Z,5.08
2022-12-27T11:49:10.473Z,5.07
2022-12-27T11:52:17.133Z,5.04
2022-12-27T11:55:23.247Z,5.03
2022-12-27T11:58:28.636Z,5.03
2022-12-27T12:01:16.967Z,4.99
2022-12-27T12:04:07.839Z,4.97
2022-12-27T12:06:52.816Z,4.96
2022-12-27T12:09:47.505Z,4.97
2022-12-27T12:12:46.142Z,4.98
2022-12-27T12:15:43.253Z,4.97
2022-12-27T12:18:29.957Z,4.94
2022-12-27T12:21:31.893Z,4.92
2022-12-27T12:24:24.186Z,4.93
2022-12-27T12:27:31.354Z,4.93
2022-12-27T12:30:27.507Z,4.95
2022-12-27T12:33:14.154Z,4.96
2022-12-27T12:36:14.594Z,4.95
2022-12-27T12:38:57.261Z,4.94
2022-12-27T12:42:04.243Z,4.93
2022-12-27T12:44:57.789Z,4.90
2022-12-27T12:47:50.208Z,4.89
2022-12-27T12:50:35.178Z,4.83
2022-12-27T12:53:33.995Z,4.81
2022-12-27T12:56:21.169Z,4.79
2022-12-27T12:59:05.365Z,4.76
2022-12-27T13:01:52.821Z,4.76
2022-12-27T13:04:51.967Z,4.76
2022-12-27T13:07:41.440Z,4.73
2022-12-27T13:10:45.506Z,4.71
2022-12-27T13:13:27.583Z,4.71
2022-12-27T13:16:16.017Z,4.71
2022-12-27T13:19:00.004Z,4.71
2022-12-27T13:21:52.571Z,4.71
2022-12-27T13:24:34.571Z,4.73
2022-12-27T13:27:15.033Z,4.73
2022-12-27T13:30:07.708Z,4.72
2022-12-27T13:32:57.642Z,4.72
2022-12-27T13:35:43.844Z,4.72
2022-12-27T13:38:33.287Z,4.74
2022-12-27T13:41:32.975Z,4.71
2022-12-27T13:44:25.114Z,4.69
2022-12-27T13:47:18.507Z,4.70
2022-12-27T13:50:16.302Z,4.68
2022-12-27T13:53:03.242Z,4.68
2022-12-27T13:55:55.578Z,4.69
2022-12-27T13:59:05.226Z,4.70
2022-12-27T14:01:56.877Z,4.68
2022-12-27T14:05:05.765Z,4.68
2022-12-27T14:07:51.468Z,4.67
2022-12-27T14:10:34.336Z,4.70
2022-12-27T14:13:11.637Z,4.73
2022-12-27T14:16:17.580Z,4.78
2022-12-27T14:19:06.831Z,4.82
2022-12-27T14:22:12.150Z,4.84
2022-12-27T14:25:14.173Z,4.86
2022-12-27T14:28:16.424Z,4.86
2022-12-27T14:31:19.045Z,4.86
2022-12-27T14:34:39.887Z,4.88
2022-12-27T14:37:42.029Z,4.89
2022-12-27T14:40:34.523Z,4.88
2022-12-27T14:43:36.874Z,4.87
2022-12-27T14:46:41.551Z,4.88
2022-12-27T14:49:59.446Z,4.89
2022-12-27T14:53:02.297Z,4.87
2022-12-27T14:55:50.298Z,4.86
2022-12-27T14:58:47.665Z,4.86
2022-12-27T15:01:33.261Z,4.88
2022-12-27T15:04:31.422Z,4.87
2022-12-27T15:07:22.970Z,4.88
2022-12-27T15:10:02.635Z,4.87
2022-12-27T15:12:43.405Z,4.88
2022-12-27T15:15:29.527Z,4.90
2022-12-27T15:18:19.563Z,4.91
2022-12-27T15:21:09.471Z,4.90
2022-12-27T15:23:51.803Z,4.88
2022-12-27T15:26:34.984Z,4.89
2022-12-27T15:29:24.008Z,4.89
2022-12-27T15:32:07.379Z,4.91
2022-12-27T15:34:52.674Z,4.92
2022-12-27T15:38:02.485Z,4.93
2022-12-27T15:41:04.777Z,4.91
2022-12-27T15:43:59.244Z,4.92
2022-12-27T15:47:00.276Z,4.93
2022-12-27T15:49:59.924Z,4.93
2022-12-27T15:52:45.482Z,4.93
2022-12-27T15:55:22.873Z,4.92
2022-12-27T15:58:13.370Z,4.90
2022-12-27T16:01:08.487Z,4.86
2022-12-27T16:03:42.171Z,4.86
2022-12-27T16:06:51.238Z,4.83
2022-12-27T16:09:38.421Z,4.81
2022-12-27T16:12:33.081Z,4.81
2022-12-27T16:15:37.657Z,4.83
2022-12-27T16:18:34.658Z,4.86
2022-12-27T16:21:10.922Z,4.88
2022-12-27T16:23:50.375Z,4.88
2022-12-27T16:26:26.743Z,4.87
2022-12-27T16:29:01.897Z,4.85
2022-12-27T16:31:33.744Z,4.85
2022-12-27T16:34:21.715Z,4.81
2022-12-27T16:36:56.264Z,4.82
2022-12-27T16:39:59.162Z,4.83
2022-12-27T16:42:58.281Z,4.85
2022-12-27T16:45:46.981Z,4.85
2022-12-27T16:48:27.037Z,4.85
2022-12-27T16:51:14.571Z,4.87
2022-12-27T16:54:06.770Z,4.87
2022-12-27T16:56:41.869Z,4.90
2022-12-27T16:59:26.169Z,4.89
2022-12-27T17:02:02.058Z,4.86
2022-12-27T17:04:56.654Z,4.84
2022-12-27T17:08:07.597Z,4.83
2022-12-27T17:11:01.958Z,4.79
2022-12-27T17:13:47.930Z,4.76
2022-12-27T17:16:23.872Z,4.73
2022-12-27T17:19:00.762Z,4.72
2022-12-27T17:21:35.783Z,4.73
2022-12-27T17:24:11.549Z,4.74
2022-12-27T17:27:04.326Z,4.77
2022-12-27T17:29:52.600Z,4.77
2022-12-27T17:32:35.672Z,4.78
2022-12-27T17:35:16.782Z,4.78
2022-12-27T17:38:02.973Z,4.78
2022-12-27T17:40:45.104Z,4.76
2022-12-27T17:43:49.010Z,4.76
2022-12-27T17:46:37.692Z,4.79
2022-12-27T17:49:12.291Z,4.78
2022-12-27T17:52:21.016Z,4.79
2022-12-27T17:55:11.025Z,4.81
2022-12-27T17:57:55.803Z,4.81
2022-12-27T18:00:31.218Z,4.81
2022-12-27T18:03:10.746Z,4.83
2022-12-27T18:05:46.707Z,4.85
2022-12-27T18:08:28.254Z,4.85
2022-12-27T18:11:02.749Z,4.85
2022-12-27T18:13:39.787Z,4.85
2022-12-27T18:16:20.025Z,4.86
2022-12-27T18:18:55.148Z,4.87
2022-12-27T18:21:29.723Z,4.86
2022-12-27T18:24:02.681Z,4.83
2022-12-27T18:26:38.519Z,4.82
2022-12-27T18:29:13.685Z,4.78
2022-12-27T18:31:48.305Z,4.76
2022-12-27T18:34:28.364Z,4.73
2022-12-27T18:37:04.625Z,4.72
2022-12-27T18:39:40.270Z,4.71
2022-12-27T18:42:21.244Z,4.72
2022-12-27T18:44:57.175Z,4.72
2022-12-27T18:47:30.297Z,4.71
2022-12-27T18:50:05.939Z,4.70
2022-12-27T18:52:41.950Z,4.70
2022-12-27T18:55:20.800Z,4.69
2022-12-27T18:58:05.308Z,4.67
2022-12-27T19:00:50.336Z,4.67
2022-12-27T19:03:23.448Z,4.65
2022-12-27T19:06:09.062Z,4.65
2022-12-27T19:08:46.648Z,4.65
2022-12-27T19:11:24.368Z,4.63
2022-12-27T19:13:59.258Z,4.61
2022-12-27T19:16:34.432Z,4.59
2022-12-27T19:19:15.902Z,4.58
2022-12-27T19:21:48.324Z,4.56
2022-12-27T19:24:34.365Z,4.55
2022-12-27T19:27:23.972Z,4.54
2022-12-27T19:29:56.353Z,4.54
2022-12-27T19:32:33.783Z,4.56
2022-12-27T19:35:08.641Z,4.58
2022-12-27T19:37:41.040Z,4.59
2022-12-27T19:40:17.991Z,4.61
2022-12-27T19:42:50.318Z,4.62
2022-12-27T19:45:23.023Z,4.63
2022-12-27T19:47:57.762Z,4.64
2022-12-27T19:50:30.210Z,4.65
2022-12-27T19:53:02.934Z,4.66
2022-12-27T19:55:36.359Z,4.67
2022-12-27T19:58:10.061Z,4.67
2022-12-27T20:00:42.861Z,4.67
2022-12-27T20:03:15.207Z,4.68
2022-12-27T20:06:13.468Z,4.68
2022-12-27T20:08:44.005Z,4.70
2022-12-27T20:11:19.737Z,4.70
2022-12-27T20:13:52.204Z,4.72
2022-12-27T20:16:24.729Z,4.71
2022-12-27T20:18:57.228Z,4.73
2022-12-27T20:21:29.836Z,4.74
2022-12-27T20:24:02.213Z,4.76
2022-12-27T20:26:34.767Z,4.77
2022-12-27T20:29:07.554Z,4.77
2022-12-27T20:31:44.645Z,4.77
2022-12-27T20:34:17.786Z,4.82
2022-12-27T20:36:52.186Z,4.86
2022-12-27T20:39:24.412Z,4.89
2022-12-27T20:41:56.781Z,4.92
2022-12-27T20:44:29.056Z,4.95
2022-12-27T20:47:01.477Z,5.00
2022-12-27T20:49:34.163Z,5.05
2022-12-27T20:52:07.009Z,5.05
2022-12-27T20:54:39.363Z,5.05
2022-12-27T20:57:12.660Z,5.08
2022-12-27T20:59:44.969Z,5.08
2022-12-27T21:02:17.666Z,5.09
2022-12-27T21:04:50.285Z,5.11
2022-12-27T21:07:22.789Z,5.14
2022-12-27T21:09:55.519Z,5.17
2022-12-27T21:12:27.920Z,5.17
2022-12-27T21:15:00.484Z,5.19
2022-12-27T21:17:32.899Z,5.18
2022-12-27T21:20:06.833Z,5.15
2022-12-27T21:22:39.510Z,5.16
2022-12-27T21:25:12.553Z,5.18
2022-12-27T21:27:45.053Z,5.19
2022-12-27T21:30:17.549Z,5.22
2022-12-27T21:32:50.333Z,5.23
2022-12-27T21:35:22.735Z,5.21
2022-12-27T21:37:55.141Z,5.19
2022-12-27T21:40:27.532Z,5.13
2022-12-27T21:43:00.010Z,5.07
2022-12-27T21:45:32.459Z,5.04
2022-12-27T21:48:04.959Z,5.01
2022-12-27T21:50:37.583Z,4.99
2022-12-27T21:53:10.059Z,4.97
2022-12-27T21:55:42.490Z,4.95
2022-12-27T21:58:15.188Z,4.96
2022-12-27T22:00:47.520Z,4.93
2022-12-27T22:03:20.149Z,4.92
2022-12-27T22:05:52.795Z,4.91
2022-12-27T22:08:25.192Z,4.89
2022-12-27T22:11:00.667Z,4.91
2022-12-27T22:13:33.705Z,4.89
2022-12-27T22:16:12.767Z,4.86
2022-12-27T22:18:45.750Z,4.85
2022-12-27T22:21:20.416Z,4.87
2022-12-27T22:23:54.903Z,4.88
2022-12-27T22:26:29.175Z,4.86
2022-12-27T22:29:02.106Z,4.83
2022-12-27T22:31:38.155Z,4.81
2022-12-27T22:34:10.684Z,4.83
2022-12-27T22:36:43.108Z,4.84
2022-12-27T22:39:15.390Z,4.85
2022-12-27T22:41:47.836Z,4.85
2022-12-27T22:44:20.200Z,4.85
2022-12-27T22:49:45.357Z,4.78
2022-12-27T22:52:17.682Z,4.71
2022-12-27T22:55:04.027Z,4.66
2022-12-27T22:57:39.729Z,4.63
2022-12-27T23:00:16.219Z,4.62
2022-12-27T23:02:48.598Z,4.63
2022-12-27T23:05:21.148Z,4.61
2022-12-27T23:08:05.048Z,4.59
2022-12-27T23:10:39.205Z,4.58
2022-12-27T23:13:11.421Z,4.55
2022-12-27T23:15:43.825Z,4.50
2022-12-27T23:18:16.326Z,4.48
2022-12-27T23:21:19.078Z,4.47
2022-12-27T23:23:41.214Z,4.44
2022-12-27T23:26:16.976Z,4.41
2022-12-27T23:28:50.582Z,4.38
2022-12-27T23:31:26.111Z,4.37
2022-12-27T23:33:58.878Z,4.35
2022-12-27T23:36:33.370Z,4.34
2022-12-27T23:39:06.292Z,4.33
2022-12-27T23:41:38.731Z,4.33
2022-12-27T23:44:11.567Z,4.32
2022-12-27T23:46:44.220Z,4.28
2022-12-27T23:49:17.601Z,4.27
2022-12-27T23:51:51.658Z,4.27
2022-12-27T23:54:23.931Z,4.30
2022-12-27T23:56:56.293Z,4.33
2022-12-27T23:59:29.236Z,4.34
